sensor_id;sensor_type;location;lat;lon;timestamp;P1;durP1;ratioP1;P2;durP2;ratioP2
74473;SDS011;62922;-6.168;106.796;2023-07-16T00:01:15;29.17;;;17.05;;
74473;SDS011;62922;-6.168;106.796;2023-07-16T00:03:41;30.35;;;17.55;;
74473;SDS011;62922;-6.168;106.796;2023-07-16T00:06:07;25.17;;;16.80;;
74473;SDS011;62922;-6.168;106.796;2023-07-16T00:08:34;33.33;;;17.48;;
74473;SDS011;62922;-6.168;106.796;2023-07-16T00:11:00;27.95;;;16.65;;
74473;SDS011;62922;-6.168;106.796;2023-07-16T00:13:28;29.90;;;16.70;;
74473;SDS011;62922;-6.168;106.796;2023-07-16T00:15:54;22.85;;;15.73;;
74473;SDS011;62922;-6.168;106.796;2023-07-16T00:18:21;26.10;;;15.98;;
74473;SDS011;62922;-6.168;106.796;2023-07-16T00:20:47;28.35;;;15.52;;
74473;SDS011;62922;-6.168;106.796;2023-07-16T00:23:13;33.63;;;15.80;;
74473;SDS011;62922;-6.168;106.796;2023-07-16T00:25:40;24.85;;;16.15;;
74473;SDS011;62922;-6.168;106.796;2023-07-16T00:28:06;32.50;;;16.05;;
74473;SDS011;62922;-6.168;106.796;2023-07-16T00:30:32;28.52;;;16.23;;
74473;SDS011;62922;-6.168;106.796;2023-07-16T00:32:58;29.95;;;15.57;;
74473;SDS011;62922;-6.168;106.796;2023-07-16T00:35:25;26.33;;;15.45;;
74473;SDS011;62922;-6.168;106.796;2023-07-16T00:37:51;36.78;;;16.55;;
74473;SDS011;62922;-6.168;106.796;2023-07-16T00:40:17;28.92;;;16.23;;
74473;SDS011;62922;-6.168;106.796;2023-07-16T00:42:44;30.58;;;16.60;;
74473;SDS011;62922;-6.168;106.796;2023-07-16T00:45:12;24.92;;;16.08;;
74473;SDS011;62922;-6.168;106.796;2023-07-16T00:47:40;32.85;;;16.92;;
74473;SDS011;62922;-6.168;106.796;2023-07-16T00:50:08;27.50;;;16.67;;
74473;SDS011;62922;-6.168;106.796;2023-07-16T00:52:36;30.48;;;16.73;;
74473;SDS011;62922;-6.168;106.796;2023-07-16T00:55:03;27.17;;;16.42;;
74473;SDS011;62922;-6.168;106.796;2023-07-16T00:57:31;28.50;;;16.30;;
74473;SDS011;62922;-6.168;106.796;2023-07-16T01:00:00;30.20;;;16.77;;
74473;SDS011;62922;-6.168;106.796;2023-07-16T01:02:26;25.63;;;16.13;;
74473;SDS011;62922;-6.168;106.796;2023-07-16T01:04:53;26.25;;;15.88;;
74473;SDS011;62922;-6.168;106.796;2023-07-16T01:07:19;28.73;;;17.13;;
74473;SDS011;62922;-6.168;106.796;2023-07-16T01:09:49;32.30;;;16.25;;
74473;SDS011;62922;-6.168;106.796;2023-07-16T01:12:16;28.02;;;16.98;;
74473;SDS011;62922;-6.168;106.796;2023-07-16T01:14:46;27.23;;;16.77;;
74473;SDS011;62922;-6.168;106.796;2023-07-16T01:17:13;27.23;;;17.02;;
74473;SDS011;62922;-6.168;106.796;2023-07-16T01:19:41;27.23;;;16.45;;
74473;SDS011;62922;-6.168;106.796;2023-07-16T01:27:27;29.58;;;16.30;;
74473;SDS011;62922;-6.168;106.796;2023-07-16T01:29:58;28.08;;;17.02;;
74473;SDS011;62922;-6.168;106.796;2023-07-16T01:32:30;26.50;;;16.95;;
74473;SDS011;62922;-6.168;106.796;2023-07-16T01:34:59;28.85;;;18.05;;
74473;SDS011;62922;-6.168;106.796;2023-07-16T01:37:27;27.33;;;16.40;;
74473;SDS011;62922;-6.168;106.796;2023-07-16T01:39:54;24.08;;;16.00;;
74473;SDS011;62922;-6.168;106.796;2023-07-16T01:42:23;26.55;;;17.23;;
74473;SDS011;62922;-6.168;106.796;2023-07-16T01:44:49;32.17;;;18.70;;
74473;SDS011;62922;-6.168;106.796;2023-07-16T01:50:12;30.48;;;17.48;;
74473;SDS011;62922;-6.168;106.796;2023-07-16T01:52:39;26.50;;;17.77;;
74473;SDS011;62922;-6.168;106.796;2023-07-16T01:55:06;24.73;;;17.85;;
74473;SDS011;62922;-6.168;106.796;2023-07-16T01:57:32;26.60;;;17.10;;
74473;SDS011;62922;-6.168;106.796;2023-07-16T01:59:58;27.88;;;17.35;;
74473;SDS011;62922;-6.168;106.796;2023-07-16T02:02:25;25.52;;;16.92;;
74473;SDS011;62922;-6.168;106.796;2023-07-16T02:04:51;28.75;;;16.92;;
74473;SDS011;62922;-6.168;106.796;2023-07-16T02:07:17;28.98;;;17.27;;
74473;SDS011;62922;-6.168;106.796;2023-07-16T02:09:44;29.42;;;17.17;;
74473;SDS011;62922;-6.168;106.796;2023-07-16T02:12:10;29.63;;;17.35;;
74473;SDS011;62922;-6.168;106.796;2023-07-16T02:14:39;30.83;;;17.48;;
74473;SDS011;62922;-6.168;106.796;2023-07-16T02:17:05;25.17;;;16.75;;
74473;SDS011;62922;-6.168;106.796;2023-07-16T02:19:31;25.60;;;17.20;;
74473;SDS011;62922;-6.168;106.796;2023-07-16T02:21:58;26.65;;;17.05;;
74473;SDS011;62922;-6.168;106.796;2023-07-16T02:24:24;25.88;;;17.02;;
74473;SDS011;62922;-6.168;106.796;2023-07-16T02:26:53;26.90;;;17.13;;
74473;SDS011;62922;-6.168;106.796;2023-07-16T02:29:19;23.95;;;16.52;;
74473;SDS011;62922;-6.168;106.796;2023-07-16T02:31:45;20.63;;;15.40;;
74473;SDS011;62922;-6.168;106.796;2023-07-16T02:34:13;24.48;;;16.77;;
74473;SDS011;62922;-6.168;106.796;2023-07-16T02:36:40;23.75;;;16.27;;
74473;SDS011;62922;-6.168;106.796;2023-07-16T02:39:06;25.17;;;16.15;;
74473;SDS011;62922;-6.168;106.796;2023-07-16T02:41:32;22.52;;;16.02;;
74473;SDS011;62922;-6.168;106.796;2023-07-16T02:44:00;28.40;;;16.20;;
74473;SDS011;62922;-6.168;106.796;2023-07-16T02:46:27;23.85;;;15.63;;
74473;SDS011;62922;-6.168;106.796;2023-07-16T02:48:53;25.95;;;16.98;;
74473;SDS011;62922;-6.168;106.796;2023-07-16T02:51:20;23.98;;;15.38;;
74473;SDS011;62922;-6.168;106.796;2023-07-16T02:53:46;21.80;;;16.63;;
74473;SDS011;62922;-6.168;106.796;2023-07-16T02:56:12;25.38;;;17.25;;
74473;SDS011;62922;-6.168;106.796;2023-07-16T02:58:39;30.35;;;17.48;;
74473;SDS011;62922;-6.168;106.796;2023-07-16T03:01:05;27.23;;;17.27;;
74473;SDS011;62922;-6.168;106.796;2023-07-16T03:03:31;29.50;;;17.17;;
74473;SDS011;62922;-6.168;106.796;2023-07-16T03:05:58;24.55;;;16.00;;
74473;SDS011;62922;-6.168;106.796;2023-07-16T03:08:24;24.70;;;16.55;;
74473;SDS011;62922;-6.168;106.796;2023-07-16T03:10:55;25.13;;;16.73;;
74473;SDS011;62922;-6.168;106.796;2023-07-16T03:13:22;25.42;;;16.73;;
74473;SDS011;62922;-6.168;106.796;2023-07-16T03:15:49;26.58;;;17.35;;
74473;SDS011;62922;-6.168;106.796;2023-07-16T03:18:17;29.70;;;17.63;;
74473;SDS011;62922;-6.168;106.796;2023-07-16T03:20:44;25.58;;;17.08;;
74473;SDS011;62922;-6.168;106.796;2023-07-16T03:23:11;23.23;;;15.60;;
74473;SDS011;62922;-6.168;106.796;2023-07-16T03:25:37;23.17;;;16.58;;
74473;SDS011;62922;-6.168;106.796;2023-07-16T03:28:03;24.40;;;16.58;;
74473;SDS011;62922;-6.168;106.796;2023-07-16T03:30:30;20.60;;;15.27;;
74473;SDS011;62922;-6.168;106.796;2023-07-16T03:32:56;24.77;;;16.30;;
74473;SDS011;62922;-6.168;106.796;2023-07-16T03:35:23;23.52;;;16.33;;
74473;SDS011;62922;-6.168;106.796;2023-07-16T03:37:49;22.58;;;16.00;;
74473;SDS011;62922;-6.168;106.796;2023-07-16T03:40:17;33.15;;;17.30;;
74473;SDS011;62922;-6.168;106.796;2023-07-16T03:42:44;25.70;;;17.40;;
74473;SDS011;62922;-6.168;106.796;2023-07-16T03:45:11;24.33;;;16.70;;
74473;SDS011;62922;-6.168;106.796;2023-07-16T03:47:42;22.83;;;16.58;;
74473;SDS011;62922;-6.168;106.796;2023-07-16T03:50:16;22.00;;;15.93;;
74473;SDS011;62922;-6.168;106.796;2023-07-16T03:52:43;24.25;;;17.05;;
74473;SDS011;62922;-6.168;106.796;2023-07-16T03:55:12;24.02;;;16.45;;
74473;SDS011;62922;-6.168;106.796;2023-07-16T03:57:40;25.15;;;17.17;;
74473;SDS011;62922;-6.168;106.796;2023-07-16T04:00:06;23.80;;;16.48;;
74473;SDS011;62922;-6.168;106.796;2023-07-16T04:02:36;23.35;;;16.77;;
74473;SDS011;62922;-6.168;106.796;2023-07-16T04:05:03;22.65;;;16.77;;
74473;SDS011;62922;-6.168;106.796;2023-07-16T04:07:29;23.55;;;16.38;;
74473;SDS011;62922;-6.168;106.796;2023-07-16T04:09:55;20.95;;;15.63;;
74473;SDS011;62922;-6.168;106.796;2023-07-16T04:12:22;20.08;;;15.52;;
74473;SDS011;62922;-6.168;106.796;2023-07-16T04:14:48;20.67;;;15.55;;
74473;SDS011;62922;-6.168;106.796;2023-07-16T04:17:14;21.08;;;16.60;;
74473;SDS011;62922;-6.168;106.796;2023-07-16T04:19:40;23.50;;;18.00;;
74473;SDS011;62922;-6.168;106.796;2023-07-16T04:22:09;27.08;;;19.85;;
74473;SDS011;62922;-6.168;106.796;2023-07-16T04:24:36;25.63;;;20.23;;
74473;SDS011;62922;-6.168;106.796;2023-07-16T04:27:02;24.02;;;17.73;;
74473;SDS011;62922;-6.168;106.796;2023-07-16T04:29:28;24.63;;;19.40;;
74473;SDS011;62922;-6.168;106.796;2023-07-16T04:31:55;25.15;;;19.60;;
74473;SDS011;62922;-6.168;106.796;2023-07-16T04:34:21;27.10;;;18.65;;
74473;SDS011;62922;-6.168;106.796;2023-07-16T04:36:47;25.23;;;18.80;;
74473;SDS011;62922;-6.168;106.796;2023-07-16T04:39:14;25.52;;;19.10;;
74473;SDS011;62922;-6.168;106.796;2023-07-16T04:41:40;23.45;;;18.13;;
74473;SDS011;62922;-6.168;106.796;2023-07-16T04:44:06;26.08;;;18.08;;
74473;SDS011;62922;-6.168;106.796;2023-07-16T04:46:32;21.35;;;17.13;;
74473;SDS011;62922;-6.168;106.796;2023-07-16T04:48:59;24.65;;;18.77;;
74473;SDS011;62922;-6.168;106.796;2023-07-16T04:51:26;31.98;;;19.85;;
74473;SDS011;62922;-6.168;106.796;2023-07-16T04:53:53;25.67;;;19.85;;
74473;SDS011;62922;-6.168;106.796;2023-07-16T04:56:19;26.92;;;19.38;;
74473;SDS011;62922;-6.168;106.796;2023-07-16T04:58:45;28.50;;;20.45;;
74473;SDS011;62922;-6.168;106.796;2023-07-16T05:01:12;37.10;;;21.92;;
74473;SDS011;62922;-6.168;106.796;2023-07-16T05:03:38;31.95;;;22.73;;
74473;SDS011;62922;-6.168;106.796;2023-07-16T05:06:07;37.33;;;24.35;;
74473;SDS011;62922;-6.168;106.796;2023-07-16T05:08:33;35.95;;;23.23;;
74473;SDS011;62922;-6.168;106.796;2023-07-16T05:11:00;34.53;;;22.13;;
74473;SDS011;62922;-6.168;106.796;2023-07-16T05:13:27;38.58;;;25.52;;
74473;SDS011;62922;-6.168;106.796;2023-07-16T05:15:53;31.80;;;23.67;;
74473;SDS011;62922;-6.168;106.796;2023-07-16T05:18:22;37.80;;;22.08;;
74473;SDS011;62922;-6.168;106.796;2023-07-16T05:20:48;34.78;;;20.52;;
74473;SDS011;62922;-6.168;106.796;2023-07-16T05:23:15;31.45;;;21.45;;
74473;SDS011;62922;-6.168;106.796;2023-07-16T05:25:49;26.60;;;20.35;;
74473;SDS011;62922;-6.168;106.796;2023-07-16T05:28:18;29.60;;;20.00;;
74473;SDS011;62922;-6.168;106.796;2023-07-16T05:30:45;25.67;;;20.23;;
74473;SDS011;62922;-6.168;106.796;2023-07-16T05:33:11;30.33;;;21.30;;
74473;SDS011;62922;-6.168;106.796;2023-07-16T05:35:40;29.20;;;21.75;;
74473;SDS011;62922;-6.168;106.796;2023-07-16T05:38:07;27.83;;;20.63;;
74473;SDS011;62922;-6.168;106.796;2023-07-16T05:40:33;28.95;;;20.73;;
74473;SDS011;62922;-6.168;106.796;2023-07-16T05:42:59;25.80;;;19.95;;
74473;SDS011;62922;-6.168;106.796;2023-07-16T05:45:28;32.38;;;23.80;;
74473;SDS011;62922;-6.168;106.796;2023-07-16T05:47:55;33.65;;;24.00;;
74473;SDS011;62922;-6.168;106.796;2023-07-16T05:50:21;33.63;;;23.52;;
74473;SDS011;62922;-6.168;106.796;2023-07-16T05:52:47;30.38;;;22.83;;
74473;SDS011;62922;-6.168;106.796;2023-07-16T05:55:14;30.30;;;21.58;;
74473;SDS011;62922;-6.168;106.796;2023-07-16T05:57:40;32.50;;;24.08;;
74473;SDS011;62922;-6.168;106.796;2023-07-16T06:00:07;31.15;;;24.20;;
74473;SDS011;62922;-6.168;106.796;2023-07-16T06:02:34;30.40;;;23.30;;
74473;SDS011;62922;-6.168;106.796;2023-07-16T06:05:01;34.65;;;25.35;;
74473;SDS011;62922;-6.168;106.796;2023-07-16T06:07:27;34.85;;;25.58;;
74473;SDS011;62922;-6.168;106.796;2023-07-16T06:09:53;36.05;;;25.98;;
74473;SDS011;62922;-6.168;106.796;2023-07-16T06:12:19;41.65;;;31.02;;
74473;SDS011;62922;-6.168;106.796;2023-07-16T06:14:46;38.40;;;28.88;;
74473;SDS011;62922;-6.168;106.796;2023-07-16T06:17:12;36.00;;;27.23;;
74473;SDS011;62922;-6.168;106.796;2023-07-16T06:19:39;38.33;;;27.40;;
74473;SDS011;62922;-6.168;106.796;2023-07-16T06:22:05;40.45;;;28.42;;
74473;SDS011;62922;-6.168;106.796;2023-07-16T06:24:32;34.83;;;25.83;;
74473;SDS011;62922;-6.168;106.796;2023-07-16T06:26:59;34.45;;;26.30;;
74473;SDS011;62922;-6.168;106.796;2023-07-16T06:29:25;32.00;;;23.98;;
74473;SDS011;62922;-6.168;106.796;2023-07-16T06:31:55;35.05;;;26.08;;
74473;SDS011;62922;-6.168;106.796;2023-07-16T06:34:22;44.67;;;28.58;;
74473;SDS011;62922;-6.168;106.796;2023-07-16T06:36:51;41.78;;;28.52;;
74473;SDS011;62922;-6.168;106.796;2023-07-16T06:39:17;49.85;;;29.08;;
74473;SDS011;62922;-6.168;106.796;2023-07-16T06:41:44;41.35;;;29.13;;
74473;SDS011;62922;-6.168;106.796;2023-07-16T06:44:10;34.45;;;25.85;;
74473;SDS011;62922;-6.168;106.796;2023-07-16T06:46:36;95.70;;;66.38;;
74473;SDS011;62922;-6.168;106.796;2023-07-16T06:49:04;165.25;;;106.50;;
74473;SDS011;62922;-6.168;106.796;2023-07-16T06:51:33;181.15;;;121.72;;
74473;SDS011;62922;-6.168;106.796;2023-07-16T06:53:59;165.40;;;108.68;;
74473;SDS011;62922;-6.168;106.796;2023-07-16T06:56:26;216.30;;;115.50;;
74473;SDS011;62922;-6.168;106.796;2023-07-16T06:58:53;181.68;;;98.55;;
74473;SDS011;62922;-6.168;106.796;2023-07-16T07:01:19;194.43;;;99.35;;
74473;SDS011;62922;-6.168;106.796;2023-07-16T07:03:45;148.30;;;84.28;;
74473;SDS011;62922;-6.168;106.796;2023-07-16T07:06:11;148.68;;;79.85;;
74473;SDS011;62922;-6.168;106.796;2023-07-16T07:08:38;109.28;;;67.63;;
74473;SDS011;62922;-6.168;106.796;2023-07-16T07:11:04;125.97;;;73.38;;
74473;SDS011;62922;-6.168;106.796;2023-07-16T07:13:30;123.55;;;70.60;;
74473;SDS011;62922;-6.168;106.796;2023-07-16T07:15:57;126.38;;;72.07;;
74473;SDS011;62922;-6.168;106.796;2023-07-16T07:18:23;105.68;;;63.47;;
74473;SDS011;62922;-6.168;106.796;2023-07-16T07:20:49;111.75;;;62.67;;
74473;SDS011;62922;-6.168;106.796;2023-07-16T07:23:16;104.53;;;59.85;;
74473;SDS011;62922;-6.168;106.796;2023-07-16T07:25:42;91.80;;;53.95;;
74473;SDS011;62922;-6.168;106.796;2023-07-16T07:28:09;87.25;;;50.47;;
74473;SDS011;62922;-6.168;106.796;2023-07-16T07:30:35;81.65;;;49.22;;
74473;SDS011;62922;-6.168;106.796;2023-07-16T07:33:02;77.75;;;49.05;;
74473;SDS011;62922;-6.168;106.796;2023-07-16T07:38:24;78.75;;;46.47;;
74473;SDS011;62922;-6.168;106.796;2023-07-16T07:40:50;72.35;;;44.00;;
74473;SDS011;62922;-6.168;106.796;2023-07-16T07:43:19;66.45;;;41.85;;
74473;SDS011;62922;-6.168;106.796;2023-07-16T07:45:45;61.42;;;39.22;;
74473;SDS011;62922;-6.168;106.796;2023-07-16T07:48:12;60.60;;;38.92;;
74473;SDS011;62922;-6.168;106.796;2023-07-16T07:50:38;57.15;;;35.53;;
74473;SDS011;62922;-6.168;106.796;2023-07-16T07:53:04;52.88;;;36.20;;
74473;SDS011;62922;-6.168;106.796;2023-07-16T07:55:31;50.28;;;35.17;;
74473;SDS011;62922;-6.168;106.796;2023-07-16T07:58:00;70.22;;;34.67;;
74473;SDS011;62922;-6.168;106.796;2023-07-16T08:00:26;57.28;;;33.90;;
74473;SDS011;62922;-6.168;106.796;2023-07-16T08:02:53;54.13;;;33.05;;
74473;SDS011;62922;-6.168;106.796;2023-07-16T08:05:19;48.88;;;31.48;;
74473;SDS011;62922;-6.168;106.796;2023-07-16T08:07:45;51.10;;;30.85;;
74473;SDS011;62922;-6.168;106.796;2023-07-16T08:10:12;52.88;;;33.03;;
74473;SDS011;62922;-6.168;106.796;2023-07-16T08:12:39;51.22;;;30.85;;
74473;SDS011;62922;-6.168;106.796;2023-07-16T08:15:05;54.17;;;30.35;;
74473;SDS011;62922;-6.168;106.796;2023-07-16T08:17:33;49.75;;;29.38;;
74473;SDS011;62922;-6.168;106.796;2023-07-16T08:19:59;48.38;;;29.85;;
74473;SDS011;62922;-6.168;106.796;2023-07-16T08:22:28;48.00;;;29.52;;
74473;SDS011;62922;-6.168;106.796;2023-07-16T08:24:54;47.60;;;29.58;;
74473;SDS011;62922;-6.168;106.796;2023-07-16T08:27:20;45.15;;;27.33;;
74473;SDS011;62922;-6.168;106.796;2023-07-16T08:29:47;40.42;;;28.42;;
74473;SDS011;62922;-6.168;106.796;2023-07-16T08:32:13;43.10;;;27.35;;
74473;SDS011;62922;-6.168;106.796;2023-07-16T08:34:39;39.05;;;28.38;;
74473;SDS011;62922;-6.168;106.796;2023-07-16T08:37:06;37.85;;;26.52;;
74473;SDS011;62922;-6.168;106.796;2023-07-16T08:39:32;39.83;;;27.23;;
74473;SDS011;62922;-6.168;106.796;2023-07-16T08:41:59;48.28;;;27.92;;
74473;SDS011;62922;-6.168;106.796;2023-07-16T08:44:25;48.63;;;27.60;;
74473;SDS011;62922;-6.168;106.796;2023-07-16T08:46:53;50.67;;;28.55;;
74473;SDS011;62922;-6.168;106.796;2023-07-16T08:49:20;44.53;;;26.95;;
74473;SDS011;62922;-6.168;106.796;2023-07-16T08:51:48;46.10;;;27.60;;
74473;SDS011;62922;-6.168;106.796;2023-07-16T08:54:15;55.28;;;28.27;;
74473;SDS011;62922;-6.168;106.796;2023-07-16T08:56:44;44.88;;;26.45;;
74473;SDS011;62922;-6.168;106.796;2023-07-16T08:59:14;51.70;;;27.85;;
74473;SDS011;62922;-6.168;106.796;2023-07-16T09:01:40;56.97;;;28.77;;
74473;SDS011;62922;-6.168;106.796;2023-07-16T09:04:07;45.42;;;27.58;;
74473;SDS011;62922;-6.168;106.796;2023-07-16T09:06:33;45.58;;;27.45;;
74473;SDS011;62922;-6.168;106.796;2023-07-16T09:09:00;50.15;;;27.83;;
74473;SDS011;62922;-6.168;106.796;2023-07-16T09:11:26;36.92;;;25.58;;
74473;SDS011;62922;-6.168;106.796;2023-07-16T09:13:52;38.42;;;26.05;;
74473;SDS011;62922;-6.168;106.796;2023-07-16T09:16:19;39.63;;;26.15;;
74473;SDS011;62922;-6.168;106.796;2023-07-16T09:18:46;37.42;;;24.52;;
74473;SDS011;62922;-6.168;106.796;2023-07-16T09:21:13;42.05;;;27.58;;
74473;SDS011;62922;-6.168;106.796;2023-07-16T09:23:39;38.47;;;26.48;;
74473;SDS011;62922;-6.168;106.796;2023-07-16T09:26:07;37.88;;;27.73;;
74473;SDS011;62922;-6.168;106.796;2023-07-16T09:28:33;39.83;;;27.27;;
74473;SDS011;62922;-6.168;106.796;2023-07-16T09:31:08;38.58;;;25.73;;
74473;SDS011;62922;-6.168;106.796;2023-07-16T09:33:34;36.92;;;26.10;;
74473;SDS011;62922;-6.168;106.796;2023-07-16T09:36:02;44.63;;;28.02;;
74473;SDS011;62922;-6.168;106.796;2023-07-16T09:38:29;41.03;;;28.35;;
74473;SDS011;62922;-6.168;106.796;2023-07-16T09:40:57;40.25;;;27.80;;
74473;SDS011;62922;-6.168;106.796;2023-07-16T09:43:24;40.03;;;28.85;;
74473;SDS011;62922;-6.168;106.796;2023-07-16T09:45:50;41.45;;;27.77;;
74473;SDS011;62922;-6.168;106.796;2023-07-16T09:48:17;42.92;;;27.02;;
74473;SDS011;62922;-6.168;106.796;2023-07-16T09:50:49;45.35;;;28.70;;
74473;SDS011;62922;-6.168;106.796;2023-07-16T09:53:18;38.83;;;27.52;;
74473;SDS011;62922;-6.168;106.796;2023-07-16T09:55:46;40.50;;;28.48;;
74473;SDS011;62922;-6.168;106.796;2023-07-16T09:58:13;47.97;;;29.90;;
74473;SDS011;62922;-6.168;106.796;2023-07-16T10:00:44;47.17;;;29.17;;
74473;SDS011;62922;-6.168;106.796;2023-07-16T10:03:13;42.47;;;28.95;;
74473;SDS011;62922;-6.168;106.796;2023-07-16T10:05:41;43.15;;;28.98;;
74473;SDS011;62922;-6.168;106.796;2023-07-16T10:08:15;50.83;;;28.70;;
74473;SDS011;62922;-6.168;106.796;2023-07-16T10:10:46;58.47;;;29.77;;
74473;SDS011;62922;-6.168;106.796;2023-07-16T10:13:14;51.45;;;29.83;;
74473;SDS011;62922;-6.168;106.796;2023-07-16T10:15:51;50.05;;;27.75;;
74473;SDS011;62922;-6.168;106.796;2023-07-16T10:18:28;61.80;;;29.25;;
74473;SDS011;62922;-6.168;106.796;2023-07-16T10:21:00;57.50;;;29.55;;
74473;SDS011;62922;-6.168;106.796;2023-07-16T10:26:09;54.90;;;30.17;;
74473;SDS011;62922;-6.168;106.796;2023-07-16T10:28:38;49.78;;;28.45;;
74473;SDS011;62922;-6.168;106.796;2023-07-16T10:31:04;46.55;;;28.98;;
74473;SDS011;62922;-6.168;106.796;2023-07-16T10:33:33;48.10;;;28.98;;
74473;SDS011;62922;-6.168;106.796;2023-07-16T10:36:03;43.53;;;28.17;;
74473;SDS011;62922;-6.168;106.796;2023-07-16T10:38:30;43.55;;;27.88;;
74473;SDS011;62922;-6.168;106.796;2023-07-16T10:41:05;41.80;;;26.75;;
74473;SDS011;62922;-6.168;106.796;2023-07-16T10:43:31;58.05;;;27.85;;
74473;SDS011;62922;-6.168;106.796;2023-07-16T10:45:58;57.13;;;27.95;;
74473;SDS011;62922;-6.168;106.796;2023-07-16T10:48:25;57.92;;;27.67;;
74473;SDS011;62922;-6.168;106.796;2023-07-16T10:50:53;58.92;;;29.63;;
74473;SDS011;62922;-6.168;106.796;2023-07-16T10:53:20;58.72;;;30.98;;
74473;SDS011;62922;-6.168;106.796;2023-07-16T10:55:46;51.40;;;29.98;;
74473;SDS011;62922;-6.168;106.796;2023-07-16T10:58:13;48.72;;;27.95;;
74473;SDS011;62922;-6.168;106.796;2023-07-16T11:00:39;44.50;;;27.38;;
74473;SDS011;62922;-6.168;106.796;2023-07-16T11:03:06;39.65;;;26.27;;
74473;SDS011;62922;-6.168;106.796;2023-07-16T11:05:33;46.50;;;25.88;;
74473;SDS011;62922;-6.168;106.796;2023-07-16T11:08:00;37.90;;;25.35;;
74473;SDS011;62922;-6.168;106.796;2023-07-16T11:10:28;38.45;;;24.90;;
74473;SDS011;62922;-6.168;106.796;2023-07-16T11:12:56;38.58;;;24.55;;
74473;SDS011;62922;-6.168;106.796;2023-07-16T11:18:00;33.35;;;22.90;;
74473;SDS011;62922;-6.168;106.796;2023-07-16T11:20:27;35.90;;;22.98;;
74473;SDS011;62922;-6.168;106.796;2023-07-16T11:22:57;32.45;;;21.50;;
74473;SDS011;62922;-6.168;106.796;2023-07-16T11:25:25;38.67;;;22.50;;
74473;SDS011;62922;-6.168;106.796;2023-07-16T11:27:53;36.00;;;22.10;;
74473;SDS011;62922;-6.168;106.796;2023-07-16T11:30:23;31.52;;;20.50;;
74473;SDS011;62922;-6.168;106.796;2023-07-16T11:32:51;34.85;;;21.05;;
74473;SDS011;62922;-6.168;106.796;2023-07-16T11:35:18;37.63;;;21.27;;
74473;SDS011;62922;-6.168;106.796;2023-07-16T11:37:47;30.77;;;20.38;;
74473;SDS011;62922;-6.168;106.796;2023-07-16T11:40:15;30.35;;;20.80;;
74473;SDS011;62922;-6.168;106.796;2023-07-16T11:42:43;25.73;;;20.20;;
74473;SDS011;62922;-6.168;106.796;2023-07-16T11:45:20;32.63;;;21.27;;
74473;SDS011;62922;-6.168;106.796;2023-07-16T11:47:50;30.17;;;20.63;;
74473;SDS011;62922;-6.168;106.796;2023-07-16T11:50:20;24.33;;;19.15;;
74473;SDS011;62922;-6.168;106.796;2023-07-16T11:55:22;29.33;;;19.33;;
74473;SDS011;62922;-6.168;106.796;2023-07-16T11:57:49;27.13;;;19.50;;
74473;SDS011;62922;-6.168;106.796;2023-07-16T12:00:15;24.73;;;18.67;;
74473;SDS011;62922;-6.168;106.796;2023-07-16T12:02:43;23.13;;;17.90;;
74473;SDS011;62922;-6.168;106.796;2023-07-16T12:05:16;29.27;;;18.80;;
74473;SDS011;62922;-6.168;106.796;2023-07-16T12:07:43;27.38;;;18.88;;
74473;SDS011;62922;-6.168;106.796;2023-07-16T12:10:10;22.85;;;17.98;;
74473;SDS011;62922;-6.168;106.796;2023-07-16T12:12:36;28.02;;;19.23;;
74473;SDS011;62922;-6.168;106.796;2023-07-16T12:15:04;24.83;;;18.98;;
74473;SDS011;62922;-6.168;106.796;2023-07-16T12:17:31;26.75;;;19.02;;
74473;SDS011;62922;-6.168;106.796;2023-07-16T12:19:57;29.98;;;19.73;;
74473;SDS011;62922;-6.168;106.796;2023-07-16T12:22:23;22.63;;;17.58;;
74473;SDS011;62922;-6.168;106.796;2023-07-16T12:24:50;24.92;;;17.95;;
74473;SDS011;62922;-6.168;106.796;2023-07-16T12:27:17;27.27;;;18.67;;
74473;SDS011;62922;-6.168;106.796;2023-07-16T12:29:45;22.50;;;17.05;;
74473;SDS011;62922;-6.168;106.796;2023-07-16T12:32:12;22.17;;;18.30;;
74473;SDS011;62922;-6.168;106.796;2023-07-16T12:34:39;23.58;;;17.40;;
74473;SDS011;62922;-6.168;106.796;2023-07-16T12:37:06;24.42;;;17.13;;
74473;SDS011;62922;-6.168;106.796;2023-07-16T12:39:34;24.23;;;17.75;;
74473;SDS011;62922;-6.168;106.796;2023-07-16T12:42:00;24.52;;;17.27;;
74473;SDS011;62922;-6.168;106.796;2023-07-16T12:44:27;22.17;;;17.45;;
74473;SDS011;62922;-6.168;106.796;2023-07-16T12:46:53;22.05;;;17.38;;
74473;SDS011;62922;-6.168;106.796;2023-07-16T12:49:19;27.30;;;17.42;;
74473;SDS011;62922;-6.168;106.796;2023-07-16T12:51:45;25.60;;;16.73;;
74473;SDS011;62922;-6.168;106.796;2023-07-16T12:54:14;21.88;;;16.70;;
74473;SDS011;62922;-6.168;106.796;2023-07-16T12:56:40;32.90;;;19.38;;
74473;SDS011;62922;-6.168;106.796;2023-07-16T12:59:07;21.83;;;16.50;;
74473;SDS011;62922;-6.168;106.796;2023-07-16T13:01:33;26.85;;;18.58;;
74473;SDS011;62922;-6.168;106.796;2023-07-16T13:03:59;28.13;;;17.98;;
74473;SDS011;62922;-6.168;106.796;2023-07-16T13:06:28;26.90;;;18.80;;
74473;SDS011;62922;-6.168;106.796;2023-07-16T13:08:55;29.42;;;17.63;;
74473;SDS011;62922;-6.168;106.796;2023-07-16T13:11:21;24.38;;;17.83;;
74473;SDS011;62922;-6.168;106.796;2023-07-16T13:13:47;23.88;;;18.50;;
74473;SDS011;62922;-6.168;106.796;2023-07-16T13:16:16;20.70;;;16.77;;
74473;SDS011;62922;-6.168;106.796;2023-07-16T13:18:42;22.95;;;16.40;;
74473;SDS011;62922;-6.168;106.796;2023-07-16T13:21:09;20.02;;;16.55;;
74473;SDS011;62922;-6.168;106.796;2023-07-16T13:23:35;25.02;;;17.90;;
74473;SDS011;62922;-6.168;106.796;2023-07-16T13:26:01;24.50;;;17.52;;
74473;SDS011;62922;-6.168;106.796;2023-07-16T13:28:28;26.75;;;19.10;;
74473;SDS011;62922;-6.168;106.796;2023-07-16T13:30:54;26.30;;;18.20;;
74473;SDS011;62922;-6.168;106.796;2023-07-16T13:33:20;25.90;;;17.92;;
74473;SDS011;62922;-6.168;106.796;2023-07-16T13:35:48;27.02;;;18.17;;
74473;SDS011;62922;-6.168;106.796;2023-07-16T13:38:14;26.33;;;18.83;;
74473;SDS011;62922;-6.168;106.796;2023-07-16T13:40:41;25.63;;;17.63;;
74473;SDS011;62922;-6.168;106.796;2023-07-16T13:43:07;27.55;;;19.25;;
74473;SDS011;62922;-6.168;106.796;2023-07-16T13:45:33;42.30;;;26.40;;
74473;SDS011;62922;-6.168;106.796;2023-07-16T13:48:00;43.88;;;26.52;;
74473;SDS011;62922;-6.168;106.796;2023-07-16T13:50:31;65.38;;;27.58;;
74473;SDS011;62922;-6.168;106.796;2023-07-16T13:52:57;35.72;;;21.90;;
74473;SDS011;62922;-6.168;106.796;2023-07-16T13:55:27;36.42;;;21.63;;
74473;SDS011;62922;-6.168;106.796;2023-07-16T13:57:54;34.95;;;23.05;;
74473;SDS011;62922;-6.168;106.796;2023-07-16T14:00:21;32.17;;;21.88;;
74473;SDS011;62922;-6.168;106.796;2023-07-16T14:02:48;31.95;;;21.40;;
74473;SDS011;62922;-6.168;106.796;2023-07-16T14:05:14;31.05;;;21.90;;
74473;SDS011;62922;-6.168;106.796;2023-07-16T14:07:42;31.05;;;20.02;;
74473;SDS011;62922;-6.168;106.796;2023-07-16T14:10:09;34.78;;;22.42;;
74473;SDS011;62922;-6.168;106.796;2023-07-16T14:12:35;32.88;;;21.63;;
74473;SDS011;62922;-6.168;106.796;2023-07-16T14:15:01;30.90;;;20.65;;